sensor_id;sensor_type;location;lat;lon;timestamp;P1;durP1;ratioP1;P2;durP2;ratioP2
54241;SDS011;40156;51.080;17.082;2022-10-19T00:03:30;13.23;;;7.60;;
54241;SDS011;40156;51.080;17.082;2022-10-19T00:05:57;14.23;;;7.65;;
54241;SDS011;40156;51.080;17.082;2022-10-19T00:08:25;19.08;;;8.43;;
54241;SDS011;40156;51.080;17.082;2022-10-19T00:10:52;15.40;;;8.32;;
54241;SDS011;40156;51.080;17.082;2022-10-19T00:13:20;18.65;;;9.23;;
54241;SDS011;40156;51.080;17.082;2022-10-19T00:15:47;17.55;;;8.55;;
54241;SDS011;40156;51.080;17.082;2022-10-19T00:18:15;20.75;;;9.50;;
54241;SDS011;40156;51.080;17.082;2022-10-19T00:20:42;14.95;;;8.77;;
54241;SDS011;40156;51.080;17.082;2022-10-19T00:23:10;16.48;;;8.52;;
54241;SDS011;40156;51.080;17.082;2022-10-19T00:25:37;17.17;;;8.77;;
54241;SDS011;40156;51.080;17.082;2022-10-19T00:28:04;20.50;;;9.65;;
54241;SDS011;40156;51.080;17.082;2022-10-19T00:30:34;18.45;;;8.57;;
54241;SDS011;40156;51.080;17.082;2022-10-19T00:33:02;18.48;;;8.55;;
54241;SDS011;40156;51.080;17.082;2022-10-19T00:35:49;19.88;;;9.13;;
54241;SDS011;40156;51.080;17.082;2022-10-19T00:38:30;18.10;;;8.88;;
54241;SDS011;40156;51.080;17.082;2022-10-19T00:40:57;17.30;;;8.70;;
54241;SDS011;40156;51.080;17.082;2022-10-19T00:43:26;15.15;;;8.07;;
54241;SDS011;40156;51.080;17.082;2022-10-19T00:45:53;22.48;;;9.35;;
54241;SDS011;40156;51.080;17.082;2022-10-19T00:48:28;19.02;;;9.40;;
54241;SDS011;40156;51.080;17.082;2022-10-19T00:50:56;18.20;;;8.82;;
54241;SDS011;40156;51.080;17.082;2022-10-19T00:53:25;19.55;;;9.13;;
54241;SDS011;40156;51.080;17.082;2022-10-19T00:55:54;21.88;;;11.30;;
54241;SDS011;40156;51.080;17.082;2022-10-19T00:58:22;19.05;;;11.88;;
54241;SDS011;40156;51.080;17.082;2022-10-19T01:00:49;25.67;;;14.00;;
54241;SDS011;40156;51.080;17.082;2022-10-19T01:03:17;27.35;;;12.95;;
54241;SDS011;40156;51.080;17.082;2022-10-19T01:05:44;27.17;;;12.65;;
54241;SDS011;40156;51.080;17.082;2022-10-19T01:08:11;24.98;;;10.65;;
54241;SDS011;40156;51.080;17.082;2022-10-19T01:10:45;25.13;;;11.75;;
54241;SDS011;40156;51.080;17.082;2022-10-19T01:14:02;25.45;;;11.27;;
54241;SDS011;40156;51.080;17.082;2022-10-19T01:16:10;22.63;;;10.60;;
54241;SDS011;40156;51.080;17.082;2022-10-19T01:18:44;22.15;;;11.15;;
54241;SDS011;40156;51.080;17.082;2022-10-19T01:21:27;30.27;;;12.00;;
54241;SDS011;40156;51.080;17.082;2022-10-19T01:29:32;26.25;;;11.80;;
54241;SDS011;40156;51.080;17.082;2022-10-19T01:32:39;20.73;;;11.25;;
54241;SDS011;40156;51.080;17.082;2022-10-19T01:39:53;28.17;;;12.70;;
54241;SDS011;40156;51.080;17.082;2022-10-19T01:47:22;26.23;;;14.75;;
54241;SDS011;40156;51.080;17.082;2022-10-19T01:52:18;34.13;;;16.23;;
54241;SDS011;40156;51.080;17.082;2022-10-19T01:54:47;31.80;;;15.15;;
54241;SDS011;40156;51.080;17.082;2022-10-19T01:57:18;35.22;;;15.93;;
54241;SDS011;40156;51.080;17.082;2022-10-19T01:59:47;34.05;;;16.05;;
54241;SDS011;40156;51.080;17.082;2022-10-19T02:02:15;36.45;;;14.60;;
54241;SDS011;40156;51.080;17.082;2022-10-19T02:04:44;38.95;;;16.73;;
54241;SDS011;40156;51.080;17.082;2022-10-19T02:07:12;35.45;;;14.15;;
54241;SDS011;40156;51.080;17.082;2022-10-19T02:09:39;41.13;;;14.85;;
54241;SDS011;40156;51.080;17.082;2022-10-19T02:12:08;36.85;;;15.45;;
54241;SDS011;40156;51.080;17.082;2022-10-19T02:14:46;42.53;;;15.32;;
54241;SDS011;40156;51.080;17.082;2022-10-19T02:17:20;34.65;;;15.07;;
54241;SDS011;40156;51.080;17.082;2022-10-19T02:19:52;40.60;;;16.60;;
54241;SDS011;40156;51.080;17.082;2022-10-19T02:22:21;43.50;;;17.48;;
54241;SDS011;40156;51.080;17.082;2022-10-19T02:24:48;37.38;;;16.83;;
54241;SDS011;40156;51.080;17.082;2022-10-19T02:27:17;46.00;;;17.17;;
54241;SDS011;40156;51.080;17.082;2022-10-19T02:29:45;41.90;;;17.33;;
54241;SDS011;40156;51.080;17.082;2022-10-19T02:32:13;43.80;;;17.45;;
54241;SDS011;40156;51.080;17.082;2022-10-19T02:34:41;41.72;;;17.38;;
54241;SDS011;40156;51.080;17.082;2022-10-19T02:37:10;42.40;;;16.80;;
54241;SDS011;40156;51.080;17.082;2022-10-19T02:39:38;39.30;;;15.40;;
54241;SDS011;40156;51.080;17.082;2022-10-19T02:42:14;39.80;;;16.48;;
54241;SDS011;40156;51.080;17.082;2022-10-19T02:44:46;39.90;;;16.52;;
54241;SDS011;40156;51.080;17.082;2022-10-19T02:47:20;36.10;;;15.68;;
54241;SDS011;40156;51.080;17.082;2022-10-19T02:49:56;36.78;;;16.13;;
54241;SDS011;40156;51.080;17.082;2022-10-19T02:52:24;36.58;;;16.52;;
54241;SDS011;40156;51.080;17.082;2022-10-19T02:54:52;37.50;;;15.55;;
54241;SDS011;40156;51.080;17.082;2022-10-19T02:57:21;33.25;;;16.40;;
54241;SDS011;40156;51.080;17.082;2022-10-19T02:59:51;37.80;;;16.10;;
54241;SDS011;40156;51.080;17.082;2022-10-19T03:02:19;37.28;;;15.70;;
54241;SDS011;40156;51.080;17.082;2022-10-19T03:04:47;32.47;;;15.15;;
54241;SDS011;40156;51.080;17.082;2022-10-19T03:07:16;32.10;;;14.73;;
54241;SDS011;40156;51.080;17.082;2022-10-19T03:09:46;35.83;;;15.68;;
54241;SDS011;40156;51.080;17.082;2022-10-19T03:12:14;31.63;;;15.20;;
54241;SDS011;40156;51.080;17.082;2022-10-19T03:14:43;37.05;;;16.15;;
54241;SDS011;40156;51.080;17.082;2022-10-19T03:17:11;32.75;;;15.70;;
54241;SDS011;40156;51.080;17.082;2022-10-19T03:19:39;34.70;;;16.25;;
54241;SDS011;40156;51.080;17.082;2022-10-19T03:22:06;30.33;;;14.80;;
54241;SDS011;40156;51.080;17.082;2022-10-19T03:24:34;29.77;;;14.40;;
54241;SDS011;40156;51.080;17.082;2022-10-19T03:27:02;34.42;;;15.20;;
54241;SDS011;40156;51.080;17.082;2022-10-19T03:29:30;32.92;;;15.80;;
54241;SDS011;40156;51.080;17.082;2022-10-19T03:31:58;32.72;;;14.32;;
54241;SDS011;40156;51.080;17.082;2022-10-19T03:34:25;33.25;;;14.23;;
54241;SDS011;40156;51.080;17.082;2022-10-19T03:36:53;39.28;;;16.70;;
54241;SDS011;40156;51.080;17.082;2022-10-19T03:39:21;33.63;;;15.10;;
54241;SDS011;40156;51.080;17.082;2022-10-19T03:41:49;37.08;;;15.80;;
54241;SDS011;40156;51.080;17.082;2022-10-19T03:44:16;35.55;;;15.70;;
54241;SDS011;40156;51.080;17.082;2022-10-19T03:46:45;34.25;;;14.93;;
54241;SDS011;40156;51.080;17.082;2022-10-19T03:49:13;34.45;;;15.40;;
54241;SDS011;40156;51.080;17.082;2022-10-19T03:51:40;43.55;;;15.90;;
54241;SDS011;40156;51.080;17.082;2022-10-19T03:54:12;29.17;;;13.93;;
54241;SDS011;40156;51.080;17.082;2022-10-19T03:56:40;31.77;;;15.50;;
54241;SDS011;40156;51.080;17.082;2022-10-19T03:59:12;29.98;;;13.90;;
54241;SDS011;40156;51.080;17.082;2022-10-19T04:01:42;27.73;;;13.27;;
54241;SDS011;40156;51.080;17.082;2022-10-19T04:04:13;32.92;;;14.40;;
54241;SDS011;40156;51.080;17.082;2022-10-19T04:06:44;32.57;;;13.43;;
54241;SDS011;40156;51.080;17.082;2022-10-19T04:09:16;28.65;;;13.43;;
54241;SDS011;40156;51.080;17.082;2022-10-19T04:11:44;28.48;;;12.57;;
54241;SDS011;40156;51.080;17.082;2022-10-19T04:14:13;35.42;;;14.15;;
54241;SDS011;40156;51.080;17.082;2022-10-19T04:16:49;30.33;;;12.43;;
54241;SDS011;40156;51.080;17.082;2022-10-19T04:19:16;28.60;;;12.93;;
54241;SDS011;40156;51.080;17.082;2022-10-19T04:21:46;32.30;;;14.32;;
54241;SDS011;40156;51.080;17.082;2022-10-19T04:24:16;28.98;;;13.82;;
54241;SDS011;40156;51.080;17.082;2022-10-19T04:26:45;32.00;;;14.02;;
54241;SDS011;40156;51.080;17.082;2022-10-19T04:31:44;35.90;;;13.88;;
54241;SDS011;40156;51.080;17.082;2022-10-19T04:34:16;34.47;;;13.52;;
54241;SDS011;40156;51.080;17.082;2022-10-19T04:36:45;38.45;;;14.85;;
54241;SDS011;40156;51.080;17.082;2022-10-19T04:39:13;32.42;;;13.68;;
54241;SDS011;40156;51.080;17.082;2022-10-19T04:41:40;29.23;;;13.73;;
54241;SDS011;40156;51.080;17.082;2022-10-19T04:44:08;30.60;;;13.18;;
54241;SDS011;40156;51.080;17.082;2022-10-19T04:46:37;26.00;;;13.32;;
54241;SDS011;40156;51.080;17.082;2022-10-19T04:49:05;33.53;;;12.60;;
54241;SDS011;40156;51.080;17.082;2022-10-19T04:51:34;28.08;;;12.25;;
54241;SDS011;40156;51.080;17.082;2022-10-19T04:54:02;26.48;;;12.38;;
54241;SDS011;40156;51.080;17.082;2022-10-19T04:56:31;27.92;;;12.20;;
54241;SDS011;40156;51.080;17.082;2022-10-19T04:58:59;25.58;;;12.15;;
54241;SDS011;40156;51.080;17.082;2022-10-19T05:01:27;26.08;;;11.25;;
54241;SDS011;40156;51.080;17.082;2022-10-19T05:03:57;28.02;;;11.38;;
54241;SDS011;40156;51.080;17.082;2022-10-19T05:06:25;24.67;;;11.18;;
54241;SDS011;40156;51.080;17.082;2022-10-19T05:08:52;24.13;;;11.52;;
54241;SDS011;40156;51.080;17.082;2022-10-19T05:11:20;29.10;;;12.00;;
54241;SDS011;40156;51.080;17.082;2022-10-19T05:13:49;19.40;;;10.30;;
54241;SDS011;40156;51.080;17.082;2022-10-19T05:16:26;29.05;;;10.80;;
54241;SDS011;40156;51.080;17.082;2022-10-19T05:18:54;24.55;;;10.40;;
54241;SDS011;40156;51.080;17.082;2022-10-19T05:21:24;27.85;;;10.80;;
54241;SDS011;40156;51.080;17.082;2022-10-19T05:23:54;26.38;;;11.43;;
54241;SDS011;40156;51.080;17.082;2022-10-19T05:26:24;22.30;;;10.35;;
54241;SDS011;40156;51.080;17.082;2022-10-19T05:28:54;19.27;;;9.43;;
54241;SDS011;40156;51.080;17.082;2022-10-19T05:31:23;26.75;;;10.45;;
54241;SDS011;40156;51.080;17.082;2022-10-19T05:33:50;18.70;;;9.40;;
54241;SDS011;40156;51.080;17.082;2022-10-19T05:36:24;18.98;;;8.70;;
54241;SDS011;40156;51.080;17.082;2022-10-19T05:42:36;14.02;;;7.70;;
54241;SDS011;40156;51.080;17.082;2022-10-19T05:45:04;12.52;;;6.57;;
54241;SDS011;40156;51.080;17.082;2022-10-19T05:47:32;15.45;;;6.93;;
54241;SDS011;40156;51.080;17.082;2022-10-19T05:50:01;12.90;;;6.28;;
54241;SDS011;40156;51.080;17.082;2022-10-19T05:52:29;12.65;;;6.00;;
54241;SDS011;40156;51.080;17.082;2022-10-19T05:54:57;10.63;;;5.43;;
54241;SDS011;40156;51.080;17.082;2022-10-19T06:01:15;9.18;;;4.97;;
54241;SDS011;40156;51.080;17.082;2022-10-19T06:03:45;12.63;;;4.82;;
54241;SDS011;40156;51.080;17.082;2022-10-19T06:06:14;9.10;;;5.32;;
54241;SDS011;40156;51.080;17.082;2022-10-19T06:08:42;13.20;;;5.43;;
54241;SDS011;40156;51.080;17.082;2022-10-19T06:11:14;11.95;;;4.68;;
54241;SDS011;40156;51.080;17.082;2022-10-19T06:13:45;7.03;;;4.10;;
54241;SDS011;40156;51.080;17.082;2022-10-19T06:16:15;11.65;;;4.90;;
54241;SDS011;40156;51.080;17.082;2022-10-19T06:18:43;10.52;;;4.90;;
54241;SDS011;40156;51.080;17.082;2022-10-19T06:21:13;8.70;;;5.10;;
54241;SDS011;40156;51.080;17.082;2022-10-19T06:23:43;8.63;;;4.95;;
54241;SDS011;40156;51.080;17.082;2022-10-19T06:26:11;9.75;;;4.95;;
54241;SDS011;40156;51.080;17.082;2022-10-19T06:28:42;11.90;;;5.03;;
54241;SDS011;40156;51.080;17.082;2022-10-19T06:31:11;8.93;;;5.13;;
54241;SDS011;40156;51.080;17.082;2022-10-19T06:33:40;9.75;;;4.78;;
54241;SDS011;40156;51.080;17.082;2022-10-19T06:36:11;11.15;;;4.28;;
54241;SDS011;40156;51.080;17.082;2022-10-19T06:38:41;14.70;;;4.20;;
54241;SDS011;40156;51.080;17.082;2022-10-19T06:41:10;13.43;;;4.90;;
54241;SDS011;40156;51.080;17.082;2022-10-19T06:43:39;10.30;;;4.65;;
54241;SDS011;40156;51.080;17.082;2022-10-19T06:46:08;9.07;;;4.63;;
54241;SDS011;40156;51.080;17.082;2022-10-19T06:48:38;12.10;;;4.90;;
54241;SDS011;40156;51.080;17.082;2022-10-19T06:51:06;8.80;;;4.53;;
54241;SDS011;40156;51.080;17.082;2022-10-19T06:53:34;10.70;;;5.28;;
54241;SDS011;40156;51.080;17.082;2022-10-19T06:56:03;10.30;;;5.30;;
54241;SDS011;40156;51.080;17.082;2022-10-19T06:58:42;11.07;;;4.80;;
54241;SDS011;40156;51.080;17.082;2022-10-19T07:01:25;10.05;;;5.05;;
54241;SDS011;40156;51.080;17.082;2022-10-19T07:03:53;10.35;;;5.10;;
54241;SDS011;40156;51.080;17.082;2022-10-19T07:06:21;8.73;;;4.72;;
54241;SDS011;40156;51.080;17.082;2022-10-19T07:08:50;13.00;;;4.55;;
54241;SDS011;40156;51.080;17.082;2022-10-19T07:11:28;13.65;;;5.43;;
54241;SDS011;40156;51.080;17.082;2022-10-19T07:14:02;12.10;;;4.82;;
54241;SDS011;40156;51.080;17.082;2022-10-19T07:16:43;11.68;;;4.70;;
54241;SDS011;40156;51.080;17.082;2022-10-19T07:19:31;6.68;;;3.75;;
54241;SDS011;40156;51.080;17.082;2022-10-19T07:22:08;10.45;;;4.05;;
54241;SDS011;40156;51.080;17.082;2022-10-19T07:24:42;8.25;;;3.17;;
54241;SDS011;40156;51.080;17.082;2022-10-19T07:27:24;6.60;;;3.70;;
54241;SDS011;40156;51.080;17.082;2022-10-19T07:30:06;11.05;;;3.83;;
54241;SDS011;40156;51.080;17.082;2022-10-19T07:32:43;5.57;;;3.30;;
54241;SDS011;40156;51.080;17.082;2022-10-19T07:35:25;7.22;;;3.70;;
54241;SDS011;40156;51.080;17.082;2022-10-19T07:37:59;7.95;;;3.20;;
54241;SDS011;40156;51.080;17.082;2022-10-19T07:40:43;8.23;;;3.65;;
54241;SDS011;40156;51.080;17.082;2022-10-19T07:43:13;9.25;;;3.45;;
54241;SDS011;40156;51.080;17.082;2022-10-19T07:45:41;6.68;;;4.07;;
54241;SDS011;40156;51.080;17.082;2022-10-19T07:48:11;6.82;;;2.83;;
54241;SDS011;40156;51.080;17.082;2022-10-19T07:50:38;8.00;;;3.42;;
54241;SDS011;40156;51.080;17.082;2022-10-19T07:53:07;6.05;;;2.70;;
54241;SDS011;40156;51.080;17.082;2022-10-19T07:55:37;6.22;;;3.30;;
54241;SDS011;40156;51.080;17.082;2022-10-19T07:58:05;8.98;;;2.88;;
54241;SDS011;40156;51.080;17.082;2022-10-19T08:00:34;6.03;;;2.70;;
54241;SDS011;40156;51.080;17.082;2022-10-19T08:03:02;6.25;;;3.00;;
54241;SDS011;40156;51.080;17.082;2022-10-19T08:05:49;4.40;;;2.30;;
54241;SDS011;40156;51.080;17.082;2022-10-19T08:08:29;8.23;;;2.67;;
54241;SDS011;40156;51.080;17.082;2022-10-19T08:11:16;6.45;;;2.60;;
54241;SDS011;40156;51.080;17.082;2022-10-19T08:13:44;7.15;;;2.45;;
54241;SDS011;40156;51.080;17.082;2022-10-19T08:18:47;9.57;;;2.60;;
54241;SDS011;40156;51.080;17.082;2022-10-19T08:21:15;6.93;;;2.50;;
54241;SDS011;40156;51.080;17.082;2022-10-19T08:23:43;7.65;;;2.45;;
54241;SDS011;40156;51.080;17.082;2022-10-19T08:26:11;5.28;;;2.60;;
54241;SDS011;40156;51.080;17.082;2022-10-19T08:28:38;4.05;;;2.30;;
54241;SDS011;40156;51.080;17.082;2022-10-19T08:31:12;5.53;;;2.38;;
54241;SDS011;40156;51.080;17.082;2022-10-19T08:33:40;4.28;;;1.80;;
54241;SDS011;40156;51.080;17.082;2022-10-19T08:36:09;4.10;;;1.80;;
54241;SDS011;40156;51.080;17.082;2022-10-19T08:38:36;3.78;;;1.88;;
54241;SDS011;40156;51.080;17.082;2022-10-19T08:44:35;5.97;;;2.27;;
54241;SDS011;40156;51.080;17.082;2022-10-19T08:49:34;6.55;;;2.38;;
54241;SDS011;40156;51.080;17.082;2022-10-19T08:54:49;3.78;;;1.90;;
54241;SDS011;40156;51.080;17.082;2022-10-19T08:57:26;5.70;;;1.95;;
54241;SDS011;40156;51.080;17.082;2022-10-19T09:00:01;3.33;;;1.52;;
54241;SDS011;40156;51.080;17.082;2022-10-19T09:02:36;4.80;;;1.55;;
54241;SDS011;40156;51.080;17.082;2022-10-19T09:05:12;3.15;;;1.63;;
54241;SDS011;40156;51.080;17.082;2022-10-19T09:07:40;4.43;;;2.00;;
54241;SDS011;40156;51.080;17.082;2022-10-19T09:15:39;1.77;;;1.50;;
54241;SDS011;40156;51.080;17.082;2022-10-19T09:20:42;8.88;;;1.35;;
54241;SDS011;40156;51.080;17.082;2022-10-19T09:25:54;2.10;;;1.30;;
54241;SDS011;40156;51.080;17.082;2022-10-19T09:31:12;2.25;;;1.55;;
54241;SDS011;40156;51.080;17.082;2022-10-19T09:33:48;2.65;;;1.42;;
54241;SDS011;40156;51.080;17.082;2022-10-19T09:36:22;2.25;;;1.20;;
54241;SDS011;40156;51.080;17.082;2022-10-19T09:39:11;3.05;;;1.60;;
54241;SDS011;40156;51.080;17.082;2022-10-19T09:48:14;2.95;;;1.10;;
54241;SDS011;40156;51.080;17.082;2022-10-19T09:50:50;2.95;;;1.30;;
54241;SDS011;40156;51.080;17.082;2022-10-19T09:53:31;2.80;;;1.00;;
54241;SDS011;40156;51.080;17.082;2022-10-19T09:56:03;4.95;;;1.13;;
54241;SDS011;40156;51.080;17.082;2022-10-19T09:58:33;2.90;;;1.23;;
54241;SDS011;40156;51.080;17.082;2022-10-19T10:01:02;2.58;;;1.00;;
54241;SDS011;40156;51.080;17.082;2022-10-19T10:03:31;4.65;;;1.50;;
54241;SDS011;40156;51.080;17.082;2022-10-19T10:06:17;6.90;;;1.70;;
54241;SDS011;40156;51.080;17.082;2022-10-19T10:08:49;3.72;;;1.10;;
54241;SDS011;40156;51.080;17.082;2022-10-19T10:11:27;1.58;;;0.88;;
54241;SDS011;40156;51.080;17.082;2022-10-19T10:14:08;2.10;;;1.02;;
54241;SDS011;40156;51.080;17.082;2022-10-19T10:16:46;3.83;;;0.90;;
54241;SDS011;40156;51.080;17.082;2022-10-19T10:19:15;3.00;;;1.30;;
54241;SDS011;40156;51.080;17.082;2022-10-19T10:21:46;1.60;;;0.82;;
54241;SDS011;40156;51.080;17.082;2022-10-19T10:24:18;1.65;;;1.10;;
54241;SDS011;40156;51.080;17.082;2022-10-19T10:26:48;3.75;;;1.15;;
54241;SDS011;40156;51.080;17.082;2022-10-19T10:29:23;2.50;;;1.27;;
54241;SDS011;40156;51.080;17.082;2022-10-19T10:37:19;2.58;;;1.00;;
54241;SDS011;40156;51.080;17.082;2022-10-19T10:39:53;2.58;;;1.02;;
54241;SDS011;40156;51.080;17.082;2022-10-19T10:42:37;2.40;;;1.20;;
54241;SDS011;40156;51.080;17.082;2022-10-19T10:45:47;1.17;;;0.70;;
54241;SDS011;40156;51.080;17.082;2022-10-19T10:50:55;2.88;;;0.70;;
54241;SDS011;40156;51.080;17.082;2022-10-19T10:53:39;2.28;;;1.00;;
54241;SDS011;40156;51.080;17.082;2022-10-19T10:56:20;2.97;;;0.80;;
54241;SDS011;40156;51.080;17.082;2022-10-19T10:58:50;2.72;;;1.25;;
54241;SDS011;40156;51.080;17.082;2022-10-19T11:01:27;3.60;;;1.10;;
54241;SDS011;40156;51.080;17.082;2022-10-19T11:04:07;3.20;;;0.70;;
54241;SDS011;40156;51.080;17.082;2022-10-19T11:07:00;3.47;;;0.93;;
54241;SDS011;40156;51.080;17.082;2022-10-19T11:09:35;1.33;;;0.45;;
54241;SDS011;40156;51.080;17.082;2022-10-19T11:12:10;1.52;;;0.60;;
54241;SDS011;40156;51.080;17.082;2022-10-19T11:17:29;1.65;;;0.70;;
54241;SDS011;40156;51.080;17.082;2022-10-19T11:19:58;0.70;;;0.50;;
54241;SDS011;40156;51.080;17.082;2022-10-19T11:31:32;2.25;;;0.93;;
54241;SDS011;40156;51.080;17.082;2022-10-19T11:39:25;2.08;;;0.40;;
54241;SDS011;40156;51.080;17.082;2022-10-19T11:53:15;1.40;;;0.47;;
54241;SDS011;40156;51.080;17.082;2022-10-19T11:55:46;0.30;;;0.30;;
54241;SDS011;40156;51.080;17.082;2022-10-19T12:03:59;3.92;;;0.80;;
54241;SDS011;40156;51.080;17.082;2022-10-19T12:12:14;1.73;;;0.93;;
54241;SDS011;40156;51.080;17.082;2022-10-19T12:14:47;3.75;;;1.00;;
54241;SDS011;40156;51.080;17.082;2022-10-19T12:17:23;3.60;;;0.90;;
54241;SDS011;40156;51.080;17.082;2022-10-19T12:19:59;4.63;;;1.45;;
54241;SDS011;40156;51.080;17.082;2022-10-19T12:22:31;2.05;;;1.13;;
54241;SDS011;40156;51.080;17.082;2022-10-19T12:25:02;3.35;;;1.20;;
54241;SDS011;40156;51.080;17.082;2022-10-19T12:27:31;4.15;;;1.30;;
54241;SDS011;40156;51.080;17.082;2022-10-19T12:30:06;2.75;;;1.23;;
54241;SDS011;40156;51.080;17.082;2022-10-19T12:32:39;6.25;;;1.30;;
54241;SDS011;40156;51.080;17.082;2022-10-19T12:35:25;3.88;;;1.30;;
54241;SDS011;40156;51.080;17.082;2022-10-19T12:37:56;3.20;;;1.55;;
54241;SDS011;40156;51.080;17.082;2022-10-19T12:43:19;2.80;;;1.10;;
54241;SDS011;40156;51.080;17.082;2022-10-19T12:48:19;1.13;;;0.80;;
54241;SDS011;40156;51.080;17.082;2022-10-19T12:53:31;2.53;;;1.27;;
54241;SDS011;40156;51.080;17.082;2022-10-19T12:58:38;2.40;;;1.20;;
54241;SDS011;40156;51.080;17.082;2022-10-19T13:01:16;2.95;;;1.00;;
54241;SDS011;40156;51.080;17.082;2022-10-19T13:03:44;1.50;;;1.20;;
54241;SDS011;40156;51.080;17.082;2022-10-19T13:06:12;2.78;;;1.25;;
54241;SDS011;40156;51.080;17.082;2022-10-19T13:09:03;2.50;;;1.10;;
54241;SDS011;40156;51.080;17.082;2022-10-19T13:11:29;2.70;;;1.20;;
54241;SDS011;40156;51.080;17.082;2022-10-19T13:16:41;3.55;;;1.02;;
54241;SDS011;40156;51.080;17.082;2022-10-19T13:19:21;3.97;;;1.33;;
54241;SDS011;40156;51.080;17.082;2022-10-19T13:29:26;2.15;;;0.98;;
54241;SDS011;40156;51.080;17.082;2022-10-19T13:31:54;3.40;;;1.20;;
54241;SDS011;40156;51.080;17.082;2022-10-19T13:34:22;2.28;;;0.93;;
54241;SDS011;40156;51.080;17.082;2022-10-19T13:37:10;2.30;;;1.02;;
54241;SDS011;40156;51.080;17.082;2022-10-19T13:39:38;3.83;;;1.10;;
54241;SDS011;40156;51.080;17.082;2022-10-19T13:42:10;2.60;;;0.73;;
54241;SDS011;40156;51.080;17.082;2022-10-19T13:44:48;1.85;;;0.88;;
54241;SDS011;40156;51.080;17.082;2022-10-19T14:11:17;1.40;;;0.80;;
54241;SDS011;40156;51.080;17.082;2022-10-19T14:13:45;4.25;;;1.00;;
54241;SDS011;40156;51.080;17.082;2022-10-19T14:16:32;2.40;;;0.68;;
54241;SDS011;40156;51.080;17.082;2022-10-19T14:19:00;5.22;;;1.00;;
54241;SDS011;40156;51.080;17.082;2022-10-19T14:21:29;5.22;;;1.05;;
54241;SDS011;40156;51.080;17.082;2022-10-19T14:23:59;1.33;;;0.88;;
54241;SDS011;40156;51.080;17.082;2022-10-19T14:26:28;3.45;;;1.48;;
54241;SDS011;40156;51.080;17.082;2022-10-19T14:28:59;3.78;;;1.33;;
54241;SDS011;40156;51.080;17.082;2022-10-19T14:31:30;1.60;;;1.10;;
54241;SDS011;40156;51.080;17.082;2022-10-19T14:34:03;2.63;;;1.08;;
54241;SDS011;40156;51.080;17.082;2022-10-19T14:36:37;2.88;;;1.10;;
54241;SDS011;40156;51.080;17.082;2022-10-19T14:39:30;3.13;;;0.82;;
54241;SDS011;40156;51.080;17.082;2022-10-19T14:42:04;3.47;;;1.25;;
54241;SDS011;40156;51.080;17.082;2022-10-19T14:44:40;3.15;;;1.00;;
54241;SDS011;40156;51.080;17.082;2022-10-19T14:47:33;2.35;;;1.00;;
54241;SDS011;40156;51.080;17.082;2022-10-19T14:49:56;3.05;;;1.75;;
54241;SDS011;40156;51.080;17.082;2022-10-19T14:52:31;3.20;;;0.98;;
54241;SDS011;40156;51.080;17.082;2022-10-19T14:55:07;1.63;;;0.77;;
54241;SDS011;40156;51.080;17.082;2022-10-19T14:57:46;3.05;;;1.10;;
54241;SDS011;40156;51.080;17.082;2022-10-19T15:00:17;4.47;;;1.20;;
54241;SDS011;40156;51.080;17.082;2022-10-19T15:05:24;3.85;;;1.23;;
54241;SDS011;40156;51.080;17.082;2022-10-19T15:07:54;2.42;;;1.17;;
54241;SDS011;40156;51.080;17.082;2022-10-19T15:15:53;4.05;;;1.20;;
54241;SDS011;40156;51.080;17.082;2022-10-19T15:18:23;3.25;;;1.00;;
54241;SDS011;40156;51.080;17.082;2022-10-19T15:21:13;5.75;;;1.30;;
54241;SDS011;40156;51.080;17.082;2022-10-19T15:23:46;4.47;;;1.45;;
54241;SDS011;40156;51.080;17.082;2022-10-19T15:28:49;9.23;;;1.73;;
54241;SDS011;40156;51.080;17.082;2022-10-19T15:31:18;5.90;;;1.50;;
54241;SDS011;40156;51.080;17.082;2022-10-19T15:33:52;3.58;;;1.40;;
54241;SDS011;40156;51.080;17.082;2022-10-19T15:36:25;3.60;;;1.50;;
54241;SDS011;40156;51.080;17.082;2022-10-19T15:39:00;5.75;;;1.42;;
54241;SDS011;40156;51.080;17.082;2022-10-19T15:41:44;3.67;;;1.33;;
54241;SDS011;40156;51.080;17.082;2022-10-19T15:52:14;3.38;;;1.33;;
54241;SDS011;40156;51.080;17.082;2022-10-19T15:54:47;7.88;;;2.10;;
54241;SDS011;40156;51.080;17.082;2022-10-19T15:59:49;5.03;;;1.50;;
54241;SDS011;40156;51.080;17.082;2022-10-19T16:02:17;5.72;;;1.67;;
54241;SDS011;40156;51.080;17.082;2022-10-19T16:04:45;4.05;;;1.48;;
54241;SDS011;40156;51.080;17.082;2022-10-19T16:07:22;4.18;;;1.48;;
54241;SDS011;40156;51.080;17.082;2022-10-19T16:09:55;4.38;;;1.65;;
54241;SDS011;40156;51.080;17.082;2022-10-19T16:12:24;4.82;;;2.15;;
54241;SDS011;40156;51.080;17.082;2022-10-19T16:14:53;4.32;;;1.48;;
54241;SDS011;40156;51.080;17.082;2022-10-19T16:17:20;7.45;;;1.45;;
54241;SDS011;40156;51.080;17.082;2022-10-19T16:19:48;4.05;;;1.75;;
54241;SDS011;40156;51.080;17.082;2022-10-19T16:22:16;5.28;;;1.50;;
54241;SDS011;40156;51.080;17.082;2022-10-19T16:24:44;3.92;;;1.50;;
54241;SDS011;40156;51.080;17.082;2022-10-19T16:27:12;2.10;;;1.38;;
54241;SDS011;40156;51.080;17.082;2022-10-19T16:29:41;2.15;;;1.35;;
54241;SDS011;40156;51.080;17.082;2022-10-19T16:32:08;2.55;;;1.35;;
54241;SDS011;40156;51.080;17.082;2022-10-19T16:34:37;2.75;;;1.40;;
54241;SDS011;40156;51.080;17.082;2022-10-19T16:37:05;2.85;;;1.10;;
54241;SDS011;40156;51.080;17.082;2022-10-19T16:39:34;3.72;;;1.55;;
54241;SDS011;40156;51.080;17.082;2022-10-19T16:42:02;4.22;;;1.63;;
54241;SDS011;40156;51.080;17.082;2022-10-19T16:44:30;3.58;;;1.60;;
54241;SDS011;40156;51.080;17.082;2022-10-19T16:46:58;4.60;;;1.65;;
54241;SDS011;40156;51.080;17.082;2022-10-19T16:49:26;4.20;;;1.70;;
54241;SDS011;40156;51.080;17.082;2022-10-19T16:51:54;7.10;;;2.45;;
54241;SDS011;40156;51.080;17.082;2022-10-19T16:54:24;9.30;;;2.78;;
54241;SDS011;40156;51.080;17.082;2022-10-19T16:56:53;6.93;;;2.65;;
54241;SDS011;40156;51.080;17.082;2022-10-19T16:59:21;6.05;;;2.25;;
54241;SDS011;40156;51.080;17.082;2022-10-19T17:01:49;3.65;;;1.95;;
54241;SDS011;40156;51.080;17.082;2022-10-19T17:04:17;6.35;;;2.80;;
54241;SDS011;40156;51.080;17.082;2022-10-19T17:06:45;4.40;;;2.10;;
54241;SDS011;40156;51.080;17.082;2022-10-19T17:09:13;2.95;;;1.90;;
54241;SDS011;40156;51.080;17.082;2022-10-19T17:12:01;6.72;;;1.55;;
54241;SDS011;40156;51.080;17.082;2022-10-19T17:14:29;3.97;;;1.80;;
54241;SDS011;40156;51.080;17.082;2022-10-19T17:16:56;2.53;;;1.40;;
54241;SDS011;40156;51.080;17.082;2022-10-19T17:19:24;3.83;;;1.92;;
54241;SDS011;40156;51.080;17.082;2022-10-19T17:21:55;4.47;;;2.28;;
54241;SDS011;40156;51.080;17.082;2022-10-19T17:24:23;4.38;;;1.90;;
54241;SDS011;40156;51.080;17.082;2022-10-19T17:26:51;5.10;;;1.95;;
54241;SDS011;40156;51.080;17.082;2022-10-19T17:29:20;6.20;;;1.98;;
54241;SDS011;40156;51.080;17.082;2022-10-19T17:31:48;5.25;;;2.70;;
54241;SDS011;40156;51.080;17.082;2022-10-19T17:34:16;8.40;;;4.20;;
54241;SDS011;40156;51.080;17.082;2022-10-19T17:36:44;14.27;;;6.07;;
54241;SDS011;40156;51.080;17.082;2022-10-19T17:39:13;23.45;;;8.48;;
54241;SDS011;40156;51.080;17.082;2022-10-19T17:41:46;17.55;;;8.27;;
54241;SDS011;40156;51.080;17.082;2022-10-19T17:44:14;8.15;;;4.82;;
54241;SDS011;40156;51.080;17.082;2022-10-19T17:46:43;7.85;;;4.50;;